Fortune Hero — 3FSL9 — position and weather

sailwx.info

Track history (hours):
 
Tides and Currents Weather Stations Pressure Air Temp Water Temp Dewpoint Dewpoint Depression Visibility Wind Speed Wind Dir Waves Ship Positions

Fortune Hero

Last reported at 2017-Dec-16 07:03 UTC. Time now 2018-Jan-19 00:11 UTC.
Position N 48°18' W 125°40'.
Warning: this ship's position is 33 days out of date.

Length 180 m; draft 10.4 m.

Type: Cargo ship. MMSI: 353210000.

Date/timePositionNaut miles runAvg speedWind from/ knotsBaromVisibWave heightAir tempDewpointWater temp
2017-Dec-16 07:03N 48°18' W 125°40'410.8
2017-Dec-16 06:42N 48°20' W 125°36'311.0
2017-Dec-16 06:28N 48°22' W 125°33'610.7
2017-Dec-16 05:57N 48°26' W 125°26'510.6
2017-Dec-16 05:29N 48°28' W 125°20'710.1
2017-Dec-16 04:49N 48°31' W 125°11'3 9.7
2017-Dec-16 04:29N 48°31' W 125°06'5 9.9
2017-Dec-16 03:59N 48°31' W 124°59'510.0
2017-Dec-16 03:30N 48°31' W 124°51'510.4
2017-Dec-16 03:01N 48°31' W 124°44'510.8
2017-Dec-16 02:31N 48°28' W 124°36'611.8
2017-Dec-16 02:01N 48°27' W 124°28'612.2
2017-Dec-16 01:31N 48°24' W 124°19'612.0
2017-Dec-16 01:00N 48°22' W 124°11'611.7
2017-Dec-16 00:30N 48°19' W 124°03'712.4
2017-Dec-15 23:56N 48°17' W 123°53'512.9
2017-Dec-15 23:30N 48°16' W 123°45'712.3
2017-Dec-15 22:59N 48°16' W 123°35'611.2
2017-Dec-15 22:25N 48°13' W 123°26'410.1
2017-Dec-15 22:00N 48°10' W 123°23'3 5.2
2017-Dec-15 21:30N 48°08' W 123°27'0 0.2
2017-Dec-15 20:46N 48°08' W 123°27'0 0.0
2017-Dec-15 20:28N 48°08' W 123°27'0 0.0
2017-Dec-15 19:58N 48°08' W 123°27'0 0.0
2017-Dec-15 19:22N 48°08' W 123°27'0 0.1
2017-Dec-15 18:58N 48°08' W 123°27'0 0.0
2017-Dec-15 18:28N 48°08' W 123°27'0 0.0
2017-Dec-15 17:58N 48°08' W 123°27'0 0.1
2017-Dec-15 17:25N 48°08' W 123°27'0 0.1
2017-Dec-15 16:55N 48°08' W 123°27'0 0.1
2017-Dec-15 16:22N 48°08' W 123°27'0 0.1
2017-Dec-15 15:46N 48°08' W 123°27'0 0.1
2017-Dec-15 15:28N 48°08' W 123°27'0 0.0
2017-Dec-15 14:16N 48°08' W 123°27'0 0.0
2017-Dec-15 13:58N 48°08' W 123°27'0 0.1
2017-Dec-15 13:28N 48°08' W 123°27'0 0.1
2017-Dec-15 12:37N 48°08' W 123°27'0 0.1
2017-Dec-15 12:25N 48°08' W 123°27'0 0.0
2017-Dec-15 11:58N 48°08' W 123°27'0 0.1
2017-Dec-15 11:28N 48°08' W 123°27'0 0.0
2017-Dec-15 10:58N 48°08' W 123°27'1 2.0
2017-Dec-15 10:30N 48°08' W 123°25'2 3.7
2017-Dec-15 10:00N 48°08' W 123°23'2 3.7
2017-Dec-15 09:30N 48°10' W 123°24'4 7.9
2017-Dec-15 09:00N 48°12' W 123°29'612.1
2017-Dec-15 08:30N 48°13' W 123°38'814.0
2017-Dec-15 07:57N 48°13' W 123°49'714.6
2017-Dec-15 07:30N 48°15' W 123°59'713.9
2017-Dec-15 07:00N 48°17' W 124°09'713.3
2017-Dec-15 06:30N 48°20' W 124°18'612.9
2017-Dec-15 06:00N 48°23' W 124°27'613.0
2017-Dec-15 05:30N 48°26' W 124°35'612.2
2017-Dec-15 05:00N 48°28' W 124°44'612.1
2017-Dec-15 04:30N 48°29' W 124°53'611.8
2017-Dec-15 04:00N 48°27' W 125°01'2013.0
2017-Dec-15 02:29N 48°09' W 125°13'10412.9
2017-Dec-14 18:24N 46°25' W 125°13'513.0
2017-Dec-14 18:00N 46°20' W 125°13'612.7
2017-Dec-14 17:30N 46°13' W 125°13'612.7
2017-Dec-14 17:01N 46°07' W 125°13'612.5
2017-Dec-14 16:30N 46°01' W 125°13'612.4
2017-Dec-14 16:00N 45°55' W 125°12'1312.5
2017-Dec-14 15:00N 45°42' W 125°12'612.5
2017-Dec-14 14:30N 45°36' W 125°11'612.8
2017-Dec-14 14:00N 45°29' W 125°11'713.0
2017-Dec-14 13:30N 45°23' W 125°11'713.1
2017-Dec-14 13:00N 45°16' W 125°10'712.8
2017-Dec-14 12:26N 45°09' W 125°10'512.7
2017-Dec-14 12:01N 45°04' W 125°10'36912.1
2017-Dec-13 05:25N 38°59' W 123°59'512.2
2017-Dec-13 05:00N 38°54' W 123°56'611.6
2017-Dec-13 04:27N 38°49' W 123°51'1611.5
2017-Dec-13 03:02N 38°35' W 123°40'011.2
2017-Dec-13 03:00N 38°35' W 123°40'611.5
2017-Dec-13 02:30N 38°30' W 123°36'611.8
2017-Dec-13 02:00N 38°25' W 123°33'611.7
2017-Dec-13 01:30N 38°20' W 123°29'611.6
2017-Dec-13 01:00N 38°15' W 123°25'611.5
2017-Dec-13 00:30N 38°10' W 123°21'611.3
2017-Dec-13 00:00N 38°06' W 123°16'611.6
2017-Dec-12 23:30N 38°01' W 123°11'611.4
2017-Dec-12 23:00N 37°57' W 123°06'611.8
2017-Dec-12 22:30N 37°54' W 122°59'612.0
2017-Dec-12 22:00N 37°51' W 122°53'611.9
2017-Dec-12 21:30N 37°48' W 122°46'510.3
2017-Dec-12 21:00N 37°46' W 122°41'510.2
2017-Dec-12 20:30N 37°47' W 122°35'713.2
2017-Dec-12 20:00N 37°50' W 122°27'510.5
2017-Dec-12 19:30N 37°48' W 122°21'2 4.6
2017-Dec-12 19:01N 37°48' W 122°18'1 1.1
2017-Dec-12 18:30N 37°48' W 122°18'0 0.0
2017-Dec-12 18:00N 37°48' W 122°18'0 0.0
2017-Dec-12 17:30N 37°48' W 122°18'0 0.0
2017-Dec-12 17:00N 37°48' W 122°18'0 0.0
2017-Dec-12 16:29N 37°48' W 122°18'0 0.0
2017-Dec-12 15:59N 37°48' W 122°18'0 0.0
2017-Dec-12 15:30N 37°48' W 122°18'0 0.0
2017-Dec-12 15:00N 37°48' W 122°18'0 0.0
2017-Dec-12 14:29N 37°48' W 122°18'0 0.1
2017-Dec-12 14:00N 37°48' W 122°18'0 0.1
2017-Dec-12 13:30N 37°48' W 122°18'0 0.0
2017-Dec-12 13:00N 37°48' W 122°18'0 0.0
2017-Dec-12 12:30N 37°48' W 122°18'0 0.0
2017-Dec-12 12:00N 37°48' W 122°18'0 0.0
2017-Dec-12 11:30N 37°48' W 122°18'0 0.0
2017-Dec-12 11:00N 37°48' W 122°18'0 0.0
2017-Dec-12 10:29N 37°48' W 122°18'0 0.0
2017-Dec-12 10:00N 37°48' W 122°18'0 0.0
2017-Dec-12 09:30N 37°48' W 122°18'0 0.0
2017-Dec-12 09:00N 37°48' W 122°18'0 0.0
2017-Dec-12 08:30N 37°48' W 122°18'0 0.0
2017-Dec-12 08:00N 37°48' W 122°18'0 0.0
2017-Dec-12 07:29N 37°48' W 122°18'0 0.0
2017-Dec-12 07:00N 37°48' W 122°18'0 0.0
2017-Dec-12 06:29N 37°48' W 122°18'0 0.0
2017-Dec-12 06:00N 37°48' W 122°18'0 0.0
2017-Dec-12 05:29N 37°48' W 122°18'0 0.0
2017-Dec-12 05:00N 37°48' W 122°18'0 0.0
2017-Dec-12 04:30N 37°48' W 122°18'0 0.0
2017-Dec-12 03:59N 37°48' W 122°18'0 0.0
2017-Dec-12 03:30N 37°48' W 122°18'0 0.0
2017-Dec-12 03:00N 37°48' W 122°18'0 0.0
2017-Dec-12 02:30N 37°48' W 122°18'0 0.0
2017-Dec-12 01:59N 37°48' W 122°18'0 0.0
2017-Dec-12 01:29N 37°48' W 122°18'0 0.0
2017-Dec-12 00:59N 37°48' W 122°18'0 0.0
2017-Dec-12 00:29N 37°48' W 122°18'0 0.0
2017-Dec-11 23:59N 37°48' W 122°18'0 0.0
2017-Dec-11 23:29N 37°48' W 122°18'0 0.0
2017-Dec-11 22:59N 37°48' W 122°18'0 0.0
2017-Dec-11 22:29N 37°48' W 122°18'0 0.0
2017-Dec-11 22:00N 37°48' W 122°18'0 0.0
2017-Dec-11 21:30N 37°48' W 122°18'0 0.0
2017-Dec-11 20:59N 37°48' W 122°18'0 0.0
2017-Dec-11 20:29N 37°48' W 122°18'0 0.0
2017-Dec-11 20:00N 37°48' W 122°18'0 0.0
2017-Dec-11 19:29N 37°48' W 122°18'0 0.0
2017-Dec-11 19:00N 37°48' W 122°18'0 0.0
2017-Dec-11 18:29N 37°48' W 122°18'0 0.0
2017-Dec-11 18:00N 37°48' W 122°18'0 0.0
2017-Dec-11 17:29N 37°48' W 122°18'0 0.0
2017-Dec-11 16:59N 37°48' W 122°18'0 0.0
2017-Dec-11 16:29N 37°48' W 122°18'0 0.0
2017-Dec-11 15:59N 37°48' W 122°18'0 0.0
2017-Dec-11 15:29N 37°48' W 122°18'0 0.0
2017-Dec-11 14:59N 37°48' W 122°18'0 0.0
2017-Dec-11 14:30N 37°48' W 122°18'0 0.0
2017-Dec-11 13:59N 37°48' W 122°18'0 0.0
2017-Dec-11 13:29N 37°48' W 122°18'0 0.0
2017-Dec-11 13:00N 37°48' W 122°18'0 0.0
2017-Dec-11 12:30N 37°48' W 122°18'0 0.0
2017-Dec-11 12:00N 37°48' W 122°18'0 0.0
2017-Dec-11 11:29N 37°48' W 122°18'0 0.0
2017-Dec-11 10:59N 37°48' W 122°18'0 0.0
2017-Dec-11 10:29N 37°48' W 122°18'0 0.0
2017-Dec-11 10:00N 37°48' W 122°18'0 0.0
2017-Dec-11 09:29N 37°48' W 122°18'0 0.0
2017-Dec-11 09:00N 37°48' W 122°18'0 0.0
2017-Dec-11 08:29N 37°48' W 122°18'0 0.0
2017-Dec-11 07:59N 37°48' W 122°18'0 0.0
2017-Dec-11 07:29N 37°48' W 122°18'0 0.0
2017-Dec-11 07:00N 37°48' W 122°18'0 0.0
2017-Dec-11 06:30N 37°48' W 122°18'0 0.0
2017-Dec-11 05:59N 37°48' W 122°18'0 0.0
2017-Dec-11 05:30N 37°48' W 122°18'0 0.0
2017-Dec-11 05:00N 37°48' W 122°18'0 0.0
2017-Dec-11 04:30N 37°48' W 122°18'0 0.0
2017-Dec-11 03:59N 37°48' W 122°18'0 0.0
2017-Dec-11 03:29N 37°48' W 122°18'0 0.0
2017-Dec-11 03:00N 37°48' W 122°18'0 0.0
2017-Dec-11 02:29N 37°48' W 122°18'0 0.0
2017-Dec-11 01:59N 37°48' W 122°18'0 0.0
2017-Dec-11 01:30N 37°48' W 122°18'0 0.0
2017-Dec-11 00:59N 37°48' W 122°18'0 0.0
2017-Dec-11 00:29N 37°48' W 122°18'0 0.0
2017-Dec-10 23:56N 37°48' W 122°18'0 0.0
2017-Dec-10 23:29N 37°48' W 122°18'0 0.0
2017-Dec-10 22:59N 37°48' W 122°18'0 0.0
2017-Dec-10 22:29N 37°48' W 122°18'0 0.0
2017-Dec-10 21:59N 37°48' W 122°18'0 0.0
2017-Dec-10 21:29N 37°48' W 122°18'0 0.0
2017-Dec-10 20:59N 37°48' W 122°18'0 0.0
2017-Dec-10 20:29N 37°48' W 122°18'0 0.0
2017-Dec-10 19:59N 37°48' W 122°18'0 0.0
2017-Dec-10 19:29N 37°48' W 122°18'0 0.0
2017-Dec-10 18:59N 37°48' W 122°18'0 0.0
2017-Dec-10 18:29N 37°48' W 122°18'0 0.0
2017-Dec-10 17:59N 37°48' W 122°18'0 0.0
2017-Dec-10 17:29N 37°48' W 122°18'0 0.0
2017-Dec-10 16:59N 37°48' W 122°18'0 0.0
2017-Dec-10 16:29N 37°48' W 122°18'0 0.0
2017-Dec-10 15:59N 37°48' W 122°18'0 0.0
2017-Dec-10 15:29N 37°48' W 122°18'0 0.0
2017-Dec-10 14:59N 37°48' W 122°18'0 0.0
2017-Dec-10 14:29N 37°48' W 122°18'0 0.0
2017-Dec-10 13:59N 37°48' W 122°18'0 0.0
2017-Dec-10 13:29N 37°48' W 122°18'0 0.0
2017-Dec-10 12:59N 37°48' W 122°18'0 0.0
2017-Dec-10 12:29N 37°48' W 122°18'0 0.0
2017-Dec-10 11:59N 37°48' W 122°18'0 0.0
2017-Dec-10 11:29N 37°48' W 122°18'0 0.0
2017-Dec-10 10:59N 37°48' W 122°18'0 0.0
2017-Dec-10 10:29N 37°48' W 122°18'0 0.0
2017-Dec-10 09:59N 37°48' W 122°18'0 0.0
2017-Dec-10 09:29N 37°48' W 122°18'0 0.0
2017-Dec-10 08:59N 37°48' W 122°18'0 0.0
2017-Dec-10 08:29N 37°48' W 122°18'0 0.0
2017-Dec-10 07:59N 37°48' W 122°18'0 0.0
2017-Dec-10 07:26N 37°48' W 122°18'0 0.0
2017-Dec-10 06:59N 37°48' W 122°18'0 0.0
2017-Dec-10 06:29N 37°48' W 122°18'0 0.0
2017-Dec-10 05:59N 37°48' W 122°18'0 0.0
2017-Dec-10 05:29N 37°48' W 122°18'0 0.0
2017-Dec-10 04:59N 37°48' W 122°18'0 0.0
2017-Dec-10 04:29N 37°48' W 122°18'0 0.0
2017-Dec-10 03:59N 37°48' W 122°18'0 0.0
2017-Dec-10 03:29N 37°48' W 122°18'0 0.0
2017-Dec-10 02:59N 37°48' W 122°18'0 0.0
2017-Dec-10 02:29N 37°48' W 122°18'0 0.0
2017-Dec-10 01:59N 37°48' W 122°18'0 0.0
2017-Dec-10 01:29N 37°48' W 122°18'0 0.0
2017-Dec-10 00:59N 37°48' W 122°18'0 0.0
2017-Dec-10 00:29N 37°48' W 122°18'0 0.0
2017-Dec-09 23:59N 37°48' W 122°18'0 0.0
2017-Dec-09 23:29N 37°48' W 122°18'0 0.0
2017-Dec-09 22:59N 37°48' W 122°18'0 0.0
2017-Dec-09 22:29N 37°48' W 122°18'0 0.0
2017-Dec-09 21:59N 37°48' W 122°18'0 0.0
2017-Dec-09 21:26N 37°48' W 122°18'0 0.0
2017-Dec-09 20:59N 37°48' W 122°18'0 0.0
2017-Dec-09 20:26N 37°48' W 122°18'0 0.0
2017-Dec-09 19:56N 37°48' W 122°18'0 0.0
2017-Dec-09 19:29N 37°48' W 122°18'0 0.0
2017-Dec-09 18:59N 37°48' W 122°18'0 0.0
2017-Dec-09 18:29N 37°48' W 122°18'0 0.0
2017-Dec-09 17:59N 37°48' W 122°18'0 0.0
2017-Dec-09 17:29N 37°48' W 122°18'0 0.0
2017-Dec-09 16:59N 37°48' W 122°18'0 0.0
2017-Dec-09 16:29N 37°48' W 122°18'0 0.0
2017-Dec-09 15:59N 37°48' W 122°18'0 0.0
2017-Dec-09 15:29N 37°48' W 122°18'0 0.0
2017-Dec-09 14:59N 37°48' W 122°18'0 0.0
2017-Dec-09 14:29N 37°48' W 122°18'0 0.0
2017-Dec-09 13:59N 37°48' W 122°18'0 0.0
2017-Dec-09 13:29N 37°48' W 122°18'0 0.0
2017-Dec-09 12:59N 37°48' W 122°18'0 0.0
2017-Dec-09 12:29N 37°48' W 122°18'0 0.0
2017-Dec-09 11:59N 37°48' W 122°18'0 0.0
2017-Dec-09 11:29N 37°48' W 122°18'0 0.0
2017-Dec-09 10:56N 37°48' W 122°18'0 0.0
2017-Dec-09 10:23N 37°48' W 122°18'0 0.0
2017-Dec-09 09:59N 37°48' W 122°18'0 0.0
2017-Dec-09 09:29N 37°48' W 122°18'0 0.0
2017-Dec-09 08:59N 37°48' W 122°18'0 0.0
2017-Dec-09 08:29N 37°48' W 122°18'0 0.0
2017-Dec-09 07:59N 37°48' W 122°18'0 0.0
2017-Dec-09 07:26N 37°48' W 122°18'0 0.0
2017-Dec-09 06:59N 37°48' W 122°18'0 0.0
2017-Dec-09 06:29N 37°48' W 122°18'0 0.0
2017-Dec-09 05:59N 37°48' W 122°18'0 0.0
2017-Dec-09 05:29N 37°48' W 122°18'0 0.0
2017-Dec-09 04:59N 37°48' W 122°18'0 0.0
2017-Dec-09 04:26N 37°48' W 122°18'0 0.0
2017-Dec-09 03:59N 37°48' W 122°18'0 0.0
2017-Dec-09 03:29N 37°48' W 122°18'0 0.0
2017-Dec-09 02:59N 37°48' W 122°18'0 0.0
2017-Dec-09 02:29N 37°48' W 122°18'0 0.0
2017-Dec-09 01:59N 37°48' W 122°18'0 0.0
2017-Dec-09 01:29N 37°48' W 122°18'0 0.0
2017-Dec-09 00:59N 37°48' W 122°18'0 0.0
2017-Dec-09 00:29N 37°48' W 122°18'0 0.0
2017-Dec-08 23:59N 37°48' W 122°18'0 0.0
2017-Dec-08 23:29N 37°48' W 122°18'0 0.0
2017-Dec-08 22:56N 37°48' W 122°18'0 0.0
2017-Dec-08 22:29N 37°48' W 122°18'0 0.0
2017-Dec-08 21:59N 37°48' W 122°18'0 0.0
2017-Dec-08 21:26N 37°48' W 122°18'0 0.0
2017-Dec-08 20:59N 37°48' W 122°18'0 0.0
2017-Dec-08 20:29N 37°48' W 122°18'0 0.0
2017-Dec-08 19:59N 37°48' W 122°18'0 0.0
2017-Dec-08 19:29N 37°48' W 122°18'0 0.0
2017-Dec-08 18:59N 37°48' W 122°18'0 0.0
2017-Dec-08 18:29N 37°48' W 122°18'0 0.0
2017-Dec-08 17:59N 37°48' W 122°18'0 0.0
2017-Dec-08 17:29N 37°48' W 122°18'0 0.0
2017-Dec-08 16:59N 37°48' W 122°18'0 0.0
2017-Dec-08 16:29N 37°48' W 122°18'0 0.0
2017-Dec-08 15:59N 37°48' W 122°18'0 0.0
2017-Dec-08 15:29N 37°48' W 122°18'0 0.0
2017-Dec-08 14:59N 37°48' W 122°18'0 0.0
2017-Dec-08 14:29N 37°48' W 122°18'0 0.0
2017-Dec-08 13:59N 37°48' W 122°18'0 0.0
2017-Dec-08 13:29N 37°48' W 122°18'0 0.0
2017-Dec-08 12:59N 37°48' W 122°18'0 0.0
2017-Dec-08 12:29N 37°48' W 122°18'0 0.0
2017-Dec-08 11:59N 37°48' W 122°18'0 0.0
2017-Dec-08 11:29N 37°48' W 122°18'0 0.0
2017-Dec-08 10:59N 37°48' W 122°18'0 0.0
2017-Dec-08 10:29N 37°48' W 122°18'0 0.0
2017-Dec-08 09:59N 37°48' W 122°18'0 0.0
2017-Dec-08 09:29N 37°48' W 122°18'0 0.0
2017-Dec-08 08:59N 37°48' W 122°18'0 0.0
2017-Dec-08 08:29N 37°48' W 122°18'0 0.0
2017-Dec-08 07:56N 37°48' W 122°18'0 0.0
2017-Dec-08 07:29N 37°48' W 122°18'0 0.0
2017-Dec-08 06:59N 37°48' W 122°18'0 0.0
2017-Dec-08 06:29N 37°48' W 122°18'0 0.0
2017-Dec-08 05:59N 37°48' W 122°18'0 0.0
2017-Dec-08 05:30N 37°48' W 122°18'0 0.0
2017-Dec-08 04:59N 37°48' W 122°18'0 0.0
2017-Dec-08 04:29N 37°48' W 122°18'0 0.0
2017-Dec-08 03:59N 37°48' W 122°18'0 0.0
2017-Dec-08 03:29N 37°48' W 122°18'0 0.0
2017-Dec-08 02:59N 37°48' W 122°18'0 0.0
2017-Dec-08 02:29N 37°48' W 122°18'0 0.0
2017-Dec-08 01:59N 37°48' W 122°18'0 0.0
2017-Dec-08 01:29N 37°48' W 122°18'0 0.0
2017-Dec-08 00:59N 37°48' W 122°18'0 0.0
2017-Dec-08 00:30N 37°48' W 122°18'0 0.0
2017-Dec-07 23:59N 37°48' W 122°18'0 0.0
2017-Dec-07 23:29N 37°48' W 122°18'0 0.0
2017-Dec-07 22:59N 37°48' W 122°18'0 0.0
2017-Dec-07 22:29N 37°48' W 122°18'0 0.0
2017-Dec-07 21:59N 37°48' W 122°18'0 0.0
2017-Dec-07 21:29N 37°48' W 122°18'0 0.0
2017-Dec-07 20:59N 37°48' W 122°18'0 0.0
2017-Dec-07 20:29N 37°48' W 122°18'0 0.0
2017-Dec-07 19:59N 37°48' W 122°18'0 0.0
2017-Dec-07 19:29N 37°48' W 122°18'0 0.0
2017-Dec-07 18:56N 37°48' W 122°18'0 0.0
2017-Dec-07 18:29N 37°48' W 122°18'0 0.0
2017-Dec-07 17:59N 37°48' W 122°18'0 0.0
2017-Dec-07 17:29N 37°48' W 122°18'0 0.0
2017-Dec-07 16:59N 37°48' W 122°18'0 0.0
2017-Dec-07 16:29N 37°48' W 122°18'0 0.0
2017-Dec-07 15:59N 37°48' W 122°18'0 0.0
2017-Dec-07 15:29N 37°48' W 122°18'0 0.0
2017-Dec-07 14:59N 37°48' W 122°18'0 0.0
2017-Dec-07 14:29N 37°48' W 122°18'0 0.0
2017-Dec-07 13:59N 37°48' W 122°18'0 0.0
2017-Dec-07 13:29N 37°48' W 122°18'0 0.0
2017-Dec-07 12:59N 37°48' W 122°18'0 0.0
2017-Dec-07 12:29N 37°48' W 122°18'0 0.0
2017-Dec-07 11:59N 37°48' W 122°18'0 0.0
2017-Dec-07 11:29N 37°48' W 122°18'0 0.0
2017-Dec-07 10:59N 37°48' W 122°18'0 0.0
2017-Dec-07 10:29N 37°48' W 122°18'0 0.0
2017-Dec-07 09:59N 37°48' W 122°18'0 0.0
2017-Dec-07 09:29N 37°48' W 122°18'0 0.0
2017-Dec-07 08:59N 37°48' W 122°18'0 0.0
2017-Dec-07 08:29N 37°48' W 122°18'0 0.0
2017-Dec-07 07:59N 37°48' W 122°18'0 0.0
2017-Dec-07 07:29N 37°48' W 122°18'0 0.0
2017-Dec-07 06:59N 37°48' W 122°18'0 0.0
2017-Dec-07 06:29N 37°48' W 122°18'0 0.0
2017-Dec-07 05:59N 37°48' W 122°18'0 0.0
2017-Dec-07 05:26N 37°48' W 122°18'0 0.0
2017-Dec-07 04:59N 37°48' W 122°18'0 0.0
2017-Dec-07 04:29N 37°48' W 122°18'0 0.0
2017-Dec-07 03:59N 37°48' W 122°18'0 0.0
2017-Dec-07 03:29N 37°48' W 122°18'0 0.0
2017-Dec-07 02:59N 37°48' W 122°18'0 0.0
2017-Dec-07 02:29N 37°48' W 122°18'0 0.0
2017-Dec-07 01:59N 37°48' W 122°18'0 0.0
2017-Dec-07 01:29N 37°48' W 122°18'0 0.0
2017-Dec-07 00:59N 37°48' W 122°18'0 0.0
2017-Dec-07 00:29N 37°48' W 122°18'0 0.0
2017-Dec-06 23:59N 37°48' W 122°18'0 0.0
2017-Dec-06 23:29N 37°48' W 122°18'0 0.0
2017-Dec-06 22:59N 37°48' W 122°18'0 0.0
2017-Dec-06 22:29N 37°48' W 122°18'0 0.0
2017-Dec-06 21:59N 37°48' W 122°18'0 0.0
2017-Dec-06 21:29N 37°48' W 122°18'0 0.0
2017-Dec-06 20:59N 37°48' W 122°18'  
Track history (hours):
 
Tides and Currents Weather Stations Pressure Air Temp Water Temp Dewpoint Dewpoint Depression Visibility Wind Speed Wind Dir Waves Ship Positions

Fortune Hero

Last reported at 2017-Dec-16 07:03 UTC. Time now 2018-Jan-19 00:11 UTC.
Position N 48°18' W 125°40'.
Warning: this ship's position is 33 days out of date.

Length 180 m; draft 10.4 m.

Type: Cargo ship. MMSI: 353210000.

Date/timePositionNaut miles runAvg speedWind from/ knotsBaromVisibWave heightAir tempDewpointWater temp
2017-Dec-16 07:03N 48°18' W 125°40'410.8
2017-Dec-16 06:42N 48°20' W 125°36'311.0
2017-Dec-16 06:28N 48°22' W 125°33'610.7
2017-Dec-16 05:57N 48°26' W 125°26'510.6
2017-Dec-16 05:29N 48°28' W 125°20'710.1
2017-Dec-16 04:49N 48°31' W 125°11'3 9.7
2017-Dec-16 04:29N 48°31' W 125°06'5 9.9
2017-Dec-16 03:59N 48°31' W 124°59'510.0
2017-Dec-16 03:30N 48°31' W 124°51'510.4
2017-Dec-16 03:01N 48°31' W 124°44'510.8
2017-Dec-16 02:31N 48°28' W 124°36'611.8
2017-Dec-16 02:01N 48°27' W 124°28'612.2
2017-Dec-16 01:31N 48°24' W 124°19'612.0
2017-Dec-16 01:00N 48°22' W 124°11'611.7
2017-Dec-16 00:30N 48°19' W 124°03'712.4
2017-Dec-15 23:56N 48°17' W 123°53'512.9
2017-Dec-15 23:30N 48°16' W 123°45'712.3
2017-Dec-15 22:59N 48°16' W 123°35'611.2
2017-Dec-15 22:25N 48°13' W 123°26'410.1
2017-Dec-15 22:00N 48°10' W 123°23'3 5.2
2017-Dec-15 21:30N 48°08' W 123°27'0 0.2
2017-Dec-15 20:46N 48°08' W 123°27'0 0.0
2017-Dec-15 20:28N 48°08' W 123°27'0 0.0
2017-Dec-15 19:58N 48°08' W 123°27'0 0.0
2017-Dec-15 19:22N 48°08' W 123°27'0 0.1
2017-Dec-15 18:58N 48°08' W 123°27'0 0.0
2017-Dec-15 18:28N 48°08' W 123°27'0 0.0
2017-Dec-15 17:58N 48°08' W 123°27'0 0.1
2017-Dec-15 17:25N 48°08' W 123°27'0 0.1
2017-Dec-15 16:55N 48°08' W 123°27'0 0.1
2017-Dec-15 16:22N 48°08' W 123°27'0 0.1
2017-Dec-15 15:46N 48°08' W 123°27'0 0.1
2017-Dec-15 15:28N 48°08' W 123°27'0 0.0
2017-Dec-15 14:16N 48°08' W 123°27'0 0.0
2017-Dec-15 13:58N 48°08' W 123°27'0 0.1
2017-Dec-15 13:28N 48°08' W 123°27'0 0.1
2017-Dec-15 12:37N 48°08' W 123°27'0 0.1
2017-Dec-15 12:25N 48°08' W 123°27'0 0.0
2017-Dec-15 11:58N 48°08' W 123°27'0 0.1
2017-Dec-15 11:28N 48°08' W 123°27'0 0.0
2017-Dec-15 10:58N 48°08' W 123°27'1 2.0
2017-Dec-15 10:30N 48°08' W 123°25'2 3.7
2017-Dec-15 10:00N 48°08' W 123°23'2 3.7
2017-Dec-15 09:30N 48°10' W 123°24'4 7.9
2017-Dec-15 09:00N 48°12' W 123°29'612.1
2017-Dec-15 08:30N 48°13' W 123°38'814.0
2017-Dec-15 07:57N 48°13' W 123°49'714.6
2017-Dec-15 07:30N 48°15' W 123°59'713.9
2017-Dec-15 07:00N 48°17' W 124°09'713.3
2017-Dec-15 06:30N 48°20' W 124°18'612.9
2017-Dec-15 06:00N 48°23' W 124°27'613.0
2017-Dec-15 05:30N 48°26' W 124°35'612.2
2017-Dec-15 05:00N 48°28' W 124°44'612.1
2017-Dec-15 04:30N 48°29' W 124°53'611.8
2017-Dec-15 04:00N 48°27' W 125°01'2013.0
2017-Dec-15 02:29N 48°09' W 125°13'10412.9
2017-Dec-14 18:24N 46°25' W 125°13'513.0
2017-Dec-14 18:00N 46°20' W 125°13'612.7
2017-Dec-14 17:30N 46°13' W 125°13'612.7
2017-Dec-14 17:01N 46°07' W 125°13'612.5
2017-Dec-14 16:30N 46°01' W 125°13'612.4
2017-Dec-14 16:00N 45°55' W 125°12'1312.5
2017-Dec-14 15:00N 45°42' W 125°12'612.5
2017-Dec-14 14:30N 45°36' W 125°11'612.8
2017-Dec-14 14:00N 45°29' W 125°11'713.0
2017-Dec-14 13:30N 45°23' W 125°11'713.1
2017-Dec-14 13:00N 45°16' W 125°10'712.8
2017-Dec-14 12:26N 45°09' W 125°10'512.7
2017-Dec-14 12:01N 45°04' W 125°10'36912.1
2017-Dec-13 05:25N 38°59' W 123°59'512.2
2017-Dec-13 05:00N 38°54' W 123°56'611.6
2017-Dec-13 04:27N 38°49' W 123°51'1611.5
2017-Dec-13 03:02N 38°35' W 123°40'011.2
2017-Dec-13 03:00N 38°35' W 123°40'611.5
2017-Dec-13 02:30N 38°30' W 123°36'611.8
2017-Dec-13 02:00N 38°25' W 123°33'611.7
2017-Dec-13 01:30N 38°20' W 123°29'611.6
2017-Dec-13 01:00N 38°15' W 123°25'611.5
2017-Dec-13 00:30N 38°10' W 123°21'611.3
2017-Dec-13 00:00N 38°06' W 123°16'611.6
2017-Dec-12 23:30N 38°01' W 123°11'611.4
2017-Dec-12 23:00N 37°57' W 123°06'611.8
2017-Dec-12 22:30N 37°54' W 122°59'612.0
2017-Dec-12 22:00N 37°51' W 122°53'611.9
2017-Dec-12 21:30N 37°48' W 122°46'510.3
2017-Dec-12 21:00N 37°46' W 122°41'510.2
2017-Dec-12 20:30N 37°47' W 122°35'713.2
2017-Dec-12 20:00N 37°50' W 122°27'510.5
2017-Dec-12 19:30N 37°48' W 122°21'2 4.6
2017-Dec-12 19:01N 37°48' W 122°18'1 1.1
2017-Dec-12 18:30N 37°48' W 122°18'0 0.0
2017-Dec-12 18:00N 37°48' W 122°18'0 0.0
2017-Dec-12 17:30N 37°48' W 122°18'0 0.0
2017-Dec-12 17:00N 37°48' W 122°18'0 0.0
2017-Dec-12 16:29N 37°48' W 122°18'0 0.0
2017-Dec-12 15:59N 37°48' W 122°18'0 0.0
2017-Dec-12 15:30N 37°48' W 122°18'0 0.0
2017-Dec-12 15:00N 37°48' W 122°18'0 0.0
2017-Dec-12 14:29N 37°48' W 122°18'0 0.1
2017-Dec-12 14:00N 37°48' W 122°18'0 0.1
2017-Dec-12 13:30N 37°48' W 122°18'0 0.0
2017-Dec-12 13:00N 37°48' W 122°18'0 0.0
2017-Dec-12 12:30N 37°48' W 122°18'0 0.0
2017-Dec-12 12:00N 37°48' W 122°18'0 0.0
2017-Dec-12 11:30N 37°48' W 122°18'0 0.0
2017-Dec-12 11:00N 37°48' W 122°18'0 0.0
2017-Dec-12 10:29N 37°48' W 122°18'0 0.0
2017-Dec-12 10:00N 37°48' W 122°18'0 0.0
2017-Dec-12 09:30N 37°48' W 122°18'0 0.0
2017-Dec-12 09:00N 37°48' W 122°18'0 0.0
2017-Dec-12 08:30N 37°48' W 122°18'0 0.0
2017-Dec-12 08:00N 37°48' W 122°18'0 0.0
2017-Dec-12 07:29N 37°48' W 122°18'0 0.0
2017-Dec-12 07:00N 37°48' W 122°18'0 0.0
2017-Dec-12 06:29N 37°48' W 122°18'0 0.0
2017-Dec-12 06:00N 37°48' W 122°18'0 0.0
2017-Dec-12 05:29N 37°48' W 122°18'0 0.0
2017-Dec-12 05:00N 37°48' W 122°18'0 0.0
2017-Dec-12 04:30N 37°48' W 122°18'0 0.0
2017-Dec-12 03:59N 37°48' W 122°18'0 0.0
2017-Dec-12 03:30N 37°48' W 122°18'0 0.0
2017-Dec-12 03:00N 37°48' W 122°18'0 0.0
2017-Dec-12 02:30N 37°48' W 122°18'0 0.0
2017-Dec-12 01:59N 37°48' W 122°18'0 0.0
2017-Dec-12 01:29N 37°48' W 122°18'0 0.0
2017-Dec-12 00:59N 37°48' W 122°18'0 0.0
2017-Dec-12 00:29N 37°48' W 122°18'0 0.0
2017-Dec-11 23:59N 37°48' W 122°18'0 0.0
2017-Dec-11 23:29N 37°48' W 122°18'0 0.0
2017-Dec-11 22:59N 37°48' W 122°18'0 0.0
2017-Dec-11 22:29N 37°48' W 122°18'0 0.0
2017-Dec-11 22:00N 37°48' W 122°18'0 0.0
2017-Dec-11 21:30N 37°48' W 122°18'0 0.0
2017-Dec-11 20:59N 37°48' W 122°18'0 0.0
2017-Dec-11 20:29N 37°48' W 122°18'0 0.0
2017-Dec-11 20:00N 37°48' W 122°18'0 0.0
2017-Dec-11 19:29N 37°48' W 122°18'0 0.0
2017-Dec-11 19:00N 37°48' W 122°18'0 0.0
2017-Dec-11 18:29N 37°48' W 122°18'0 0.0
2017-Dec-11 18:00N 37°48' W 122°18'0 0.0
2017-Dec-11 17:29N 37°48' W 122°18'0 0.0
2017-Dec-11 16:59N 37°48' W 122°18'0 0.0
2017-Dec-11 16:29N 37°48' W 122°18'0 0.0
2017-Dec-11 15:59N 37°48' W 122°18'0 0.0
2017-Dec-11 15:29N 37°48' W 122°18'0 0.0
2017-Dec-11 14:59N 37°48' W 122°18'0 0.0
2017-Dec-11 14:30N 37°48' W 122°18'0 0.0
2017-Dec-11 13:59N 37°48' W 122°18'0 0.0
2017-Dec-11 13:29N 37°48' W 122°18'0 0.0
2017-Dec-11 13:00N 37°48' W 122°18'0 0.0
2017-Dec-11 12:30N 37°48' W 122°18'0 0.0
2017-Dec-11 12:00N 37°48' W 122°18'0 0.0
2017-Dec-11 11:29N 37°48' W 122°18'0 0.0
2017-Dec-11 10:59N 37°48' W 122°18'0 0.0
2017-Dec-11 10:29N 37°48' W 122°18'0 0.0
2017-Dec-11 10:00N 37°48' W 122°18'0 0.0
2017-Dec-11 09:29N 37°48' W 122°18'0 0.0
2017-Dec-11 09:00N 37°48' W 122°18'0 0.0
2017-Dec-11 08:29N 37°48' W 122°18'0 0.0
2017-Dec-11 07:59N 37°48' W 122°18'0 0.0
2017-Dec-11 07:29N 37°48' W 122°18'0 0.0
2017-Dec-11 07:00N 37°48' W 122°18'0 0.0
2017-Dec-11 06:30N 37°48' W 122°18'0 0.0
2017-Dec-11 05:59N 37°48' W 122°18'0 0.0
2017-Dec-11 05:30N 37°48' W 122°18'0 0.0
2017-Dec-11 05:00N 37°48' W 122°18'0 0.0
2017-Dec-11 04:30N 37°48' W 122°18'0 0.0
2017-Dec-11 03:59N 37°48' W 122°18'0 0.0
2017-Dec-11 03:29N 37°48' W 122°18'0 0.0
2017-Dec-11 03:00N 37°48' W 122°18'0 0.0
2017-Dec-11 02:29N 37°48' W 122°18'0 0.0
2017-Dec-11 01:59N 37°48' W 122°18'0 0.0
2017-Dec-11 01:30N 37°48' W 122°18'0 0.0
2017-Dec-11 00:59N 37°48' W 122°18'0 0.0
2017-Dec-11 00:29N 37°48' W 122°18'0 0.0
2017-Dec-10 23:56N 37°48' W 122°18'0 0.0
2017-Dec-10 23:29N 37°48' W 122°18'0 0.0
2017-Dec-10 22:59N 37°48' W 122°18'0 0.0
2017-Dec-10 22:29N 37°48' W 122°18'0 0.0
2017-Dec-10 21:59N 37°48' W 122°18'0 0.0
2017-Dec-10 21:29N 37°48' W 122°18'0 0.0
2017-Dec-10 20:59N 37°48' W 122°18'0 0.0
2017-Dec-10 20:29N 37°48' W 122°18'0 0.0
2017-Dec-10 19:59N 37°48' W 122°18'0 0.0
2017-Dec-10 19:29N 37°48' W 122°18'0 0.0
2017-Dec-10 18:59N 37°48' W 122°18'0 0.0
2017-Dec-10 18:29N 37°48' W 122°18'0 0.0
2017-Dec-10 17:59N 37°48' W 122°18'0 0.0
2017-Dec-10 17:29N 37°48' W 122°18'0 0.0
2017-Dec-10 16:59N 37°48' W 122°18'0 0.0
2017-Dec-10 16:29N 37°48' W 122°18'0 0.0
2017-Dec-10 15:59N 37°48' W 122°18'0 0.0
2017-Dec-10 15:29N 37°48' W 122°18'0 0.0
2017-Dec-10 14:59N 37°48' W 122°18'0 0.0
2017-Dec-10 14:29N 37°48' W 122°18'0 0.0
2017-Dec-10 13:59N 37°48' W 122°18'0 0.0
2017-Dec-10 13:29N 37°48' W 122°18'0 0.0
2017-Dec-10 12:59N 37°48' W 122°18'0 0.0
2017-Dec-10 12:29N 37°48' W 122°18'0 0.0
2017-Dec-10 11:59N 37°48' W 122°18'0 0.0
2017-Dec-10 11:29N 37°48' W 122°18'0 0.0
2017-Dec-10 10:59N 37°48' W 122°18'0 0.0
2017-Dec-10 10:29N 37°48' W 122°18'0 0.0
2017-Dec-10 09:59N 37°48' W 122°18'0 0.0
2017-Dec-10 09:29N 37°48' W 122°18'0 0.0
2017-Dec-10 08:59N 37°48' W 122°18'0 0.0
2017-Dec-10 08:29N 37°48' W 122°18'0 0.0
2017-Dec-10 07:59N 37°48' W 122°18'0 0.0
2017-Dec-10 07:26N 37°48' W 122°18'0 0.0
2017-Dec-10 06:59N 37°48' W 122°18'0 0.0
2017-Dec-10 06:29N 37°48' W 122°18'0 0.0
2017-Dec-10 05:59N 37°48' W 122°18'0 0.0
2017-Dec-10 05:29N 37°48' W 122°18'0 0.0
2017-Dec-10 04:59N 37°48' W 122°18'0 0.0
2017-Dec-10 04:29N 37°48' W 122°18'0 0.0
2017-Dec-10 03:59N 37°48' W 122°18'0 0.0
2017-Dec-10 03:29N 37°48' W 122°18'0 0.0
2017-Dec-10 02:59N 37°48' W 122°18'0 0.0
2017-Dec-10 02:29N 37°48' W 122°18'0 0.0
2017-Dec-10 01:59N 37°48' W 122°18'0 0.0
2017-Dec-10 01:29N 37°48' W 122°18'0 0.0
2017-Dec-10 00:59N 37°48' W 122°18'0 0.0
2017-Dec-10 00:29N 37°48' W 122°18'0 0.0
2017-Dec-09 23:59N 37°48' W 122°18'0 0.0
2017-Dec-09 23:29N 37°48' W 122°18'0 0.0
2017-Dec-09 22:59N 37°48' W 122°18'0 0.0
2017-Dec-09 22:29N 37°48' W 122°18'0 0.0
2017-Dec-09 21:59N 37°48' W 122°18'0 0.0
2017-Dec-09 21:26N 37°48' W 122°18'0 0.0
2017-Dec-09 20:59N 37°48' W 122°18'0 0.0
2017-Dec-09 20:26N 37°48' W 122°18'0 0.0
2017-Dec-09 19:56N 37°48' W 122°18'0 0.0
2017-Dec-09 19:29N 37°48' W 122°18'0 0.0
2017-Dec-09 18:59N 37°48' W 122°18'0 0.0
2017-Dec-09 18:29N 37°48' W 122°18'0 0.0
2017-Dec-09 17:59N 37°48' W 122°18'0 0.0
2017-Dec-09 17:29N 37°48' W 122°18'0 0.0
2017-Dec-09 16:59N 37°48' W 122°18'0 0.0
2017-Dec-09 16:29N 37°48' W 122°18'0 0.0
2017-Dec-09 15:59N 37°48' W 122°18'0 0.0
2017-Dec-09 15:29N 37°48' W 122°18'0 0.0
2017-Dec-09 14:59N 37°48' W 122°18'0 0.0
2017-Dec-09 14:29N 37°48' W 122°18'0 0.0
2017-Dec-09 13:59N 37°48' W 122°18'0 0.0
2017-Dec-09 13:29N 37°48' W 122°18'0 0.0
2017-Dec-09 12:59N 37°48' W 122°18'0 0.0
2017-Dec-09 12:29N 37°48' W 122°18'0 0.0
2017-Dec-09 11:59N 37°48' W 122°18'0 0.0
2017-Dec-09 11:29N 37°48' W 122°18'0 0.0
2017-Dec-09 10:56N 37°48' W 122°18'0 0.0
2017-Dec-09 10:23N 37°48' W 122°18'0 0.0
2017-Dec-09 09:59N 37°48' W 122°18'0 0.0
2017-Dec-09 09:29N 37°48' W 122°18'0 0.0
2017-Dec-09 08:59N 37°48' W 122°18'0 0.0
2017-Dec-09 08:29N 37°48' W 122°18'0 0.0
2017-Dec-09 07:59N 37°48' W 122°18'0 0.0
2017-Dec-09 07:26N 37°48' W 122°18'0 0.0
2017-Dec-09 06:59N 37°48' W 122°18'0 0.0
2017-Dec-09 06:29N 37°48' W 122°18'0 0.0
2017-Dec-09 05:59N 37°48' W 122°18'0 0.0
2017-Dec-09 05:29N 37°48' W 122°18'0 0.0
2017-Dec-09 04:59N 37°48' W 122°18'0 0.0
2017-Dec-09 04:26N 37°48' W 122°18'0 0.0
2017-Dec-09 03:59N 37°48' W 122°18'0 0.0
2017-Dec-09 03:29N 37°48' W 122°18'0 0.0
2017-Dec-09 02:59N 37°48' W 122°18'0 0.0
2017-Dec-09 02:29N 37°48' W 122°18'0 0.0
2017-Dec-09 01:59N 37°48' W 122°18'0 0.0
2017-Dec-09 01:29N 37°48' W 122°18'0 0.0
2017-Dec-09 00:59N 37°48' W 122°18'0 0.0
2017-Dec-09 00:29N 37°48' W 122°18'0 0.0
2017-Dec-08 23:59N 37°48' W 122°18'0 0.0
2017-Dec-08 23:29N 37°48' W 122°18'0 0.0
2017-Dec-08 22:56N 37°48' W 122°18'0 0.0
2017-Dec-08 22:29N 37°48' W 122°18'0 0.0
2017-Dec-08 21:59N 37°48' W 122°18'0 0.0
2017-Dec-08 21:26N 37°48' W 122°18'0 0.0
2017-Dec-08 20:59N 37°48' W 122°18'0 0.0
2017-Dec-08 20:29N 37°48' W 122°18'0 0.0
2017-Dec-08 19:59N 37°48' W 122°18'0 0.0
2017-Dec-08 19:29N 37°48' W 122°18'0 0.0
2017-Dec-08 18:59N 37°48' W 122°18'0 0.0
2017-Dec-08 18:29N 37°48' W 122°18'0 0.0
2017-Dec-08 17:59N 37°48' W 122°18'0 0.0
2017-Dec-08 17:29N 37°48' W 122°18'0 0.0
2017-Dec-08 16:59N 37°48' W 122°18'0 0.0
2017-Dec-08 16:29N 37°48' W 122°18'0 0.0
2017-Dec-08 15:59N 37°48' W 122°18'0 0.0
2017-Dec-08 15:29N 37°48' W 122°18'0 0.0
2017-Dec-08 14:59N 37°48' W 122°18'0 0.0
2017-Dec-08 14:29N 37°48' W 122°18'0 0.0
2017-Dec-08 13:59N 37°48' W 122°18'0 0.0
2017-Dec-08 13:29N 37°48' W 122°18'0 0.0
2017-Dec-08 12:59N 37°48' W 122°18'0 0.0
2017-Dec-08 12:29N 37°48' W 122°18'0 0.0
2017-Dec-08 11:59N 37°48' W 122°18'0 0.0
2017-Dec-08 11:29N 37°48' W 122°18'0 0.0
2017-Dec-08 10:59N 37°48' W 122°18'0 0.0
2017-Dec-08 10:29N 37°48' W 122°18'0 0.0
2017-Dec-08 09:59N 37°48' W 122°18'0 0.0
2017-Dec-08 09:29N 37°48' W 122°18'0 0.0
2017-Dec-08 08:59N 37°48' W 122°18'0 0.0
2017-Dec-08 08:29N 37°48' W 122°18'0 0.0
2017-Dec-08 07:56N 37°48' W 122°18'0 0.0
2017-Dec-08 07:29N 37°48' W 122°18'0 0.0
2017-Dec-08 06:59N 37°48' W 122°18'0 0.0
2017-Dec-08 06:29N 37°48' W 122°18'0 0.0
2017-Dec-08 05:59N 37°48' W 122°18'0 0.0
2017-Dec-08 05:30N 37°48' W 122°18'0 0.0
2017-Dec-08 04:59N 37°48' W 122°18'0 0.0
2017-Dec-08 04:29N 37°48' W 122°18'0 0.0
2017-Dec-08 03:59N 37°48' W 122°18'0 0.0
2017-Dec-08 03:29N 37°48' W 122°18'0 0.0
2017-Dec-08 02:59N 37°48' W 122°18'0 0.0
2017-Dec-08 02:29N 37°48' W 122°18'0 0.0
2017-Dec-08 01:59N 37°48' W 122°18'0 0.0
2017-Dec-08 01:29N 37°48' W 122°18'0 0.0
2017-Dec-08 00:59N 37°48' W 122°18'0 0.0
2017-Dec-08 00:30N 37°48' W 122°18'0 0.0
2017-Dec-07 23:59N 37°48' W 122°18'0 0.0
2017-Dec-07 23:29N 37°48' W 122°18'0 0.0
2017-Dec-07 22:59N 37°48' W 122°18'0 0.0
2017-Dec-07 22:29N 37°48' W 122°18'0 0.0
2017-Dec-07 21:59N 37°48' W 122°18'0 0.0
2017-Dec-07 21:29N 37°48' W 122°18'0 0.0
2017-Dec-07 20:59N 37°48' W 122°18'0 0.0
2017-Dec-07 20:29N 37°48' W 122°18'0 0.0
2017-Dec-07 19:59N 37°48' W 122°18'0 0.0
2017-Dec-07 19:29N 37°48' W 122°18'0 0.0
2017-Dec-07 18:56N 37°48' W 122°18'0 0.0
2017-Dec-07 18:29N 37°48' W 122°18'0 0.0
2017-Dec-07 17:59N 37°48' W 122°18'0 0.0
2017-Dec-07 17:29N 37°48' W 122°18'0 0.0
2017-Dec-07 16:59N 37°48' W 122°18'0 0.0
2017-Dec-07 16:29N 37°48' W 122°18'0 0.0
2017-Dec-07 15:59N 37°48' W 122°18'0 0.0
2017-Dec-07 15:29N 37°48' W 122°18'0 0.0
2017-Dec-07 14:59N 37°48' W 122°18'0 0.0
2017-Dec-07 14:29N 37°48' W 122°18'0 0.0
2017-Dec-07 13:59N 37°48' W 122°18'0 0.0
2017-Dec-07 13:29N 37°48' W 122°18'0 0.0
2017-Dec-07 12:59N 37°48' W 122°18'0 0.0
2017-Dec-07 12:29N 37°48' W 122°18'0 0.0
2017-Dec-07 11:59N 37°48' W 122°18'0 0.0
2017-Dec-07 11:29N 37°48' W 122°18'0 0.0
2017-Dec-07 10:59N 37°48' W 122°18'0 0.0
2017-Dec-07 10:29N 37°48' W 122°18'0 0.0
2017-Dec-07 09:59N 37°48' W 122°18'0 0.0
2017-Dec-07 09:29N 37°48' W 122°18'0 0.0
2017-Dec-07 08:59N 37°48' W 122°18'0 0.0
2017-Dec-07 08:29N 37°48' W 122°18'0 0.0
2017-Dec-07 07:59N 37°48' W 122°18'0 0.0
2017-Dec-07 07:29N 37°48' W 122°18'0 0.0
2017-Dec-07 06:59N 37°48' W 122°18'0 0.0
2017-Dec-07 06:29N 37°48' W 122°18'0 0.0
2017-Dec-07 05:59N 37°48' W 122°18'0 0.0
2017-Dec-07 05:26N 37°48' W 122°18'0 0.0
2017-Dec-07 04:59N 37°48' W 122°18'0 0.0
2017-Dec-07 04:29N 37°48' W 122°18'0 0.0
2017-Dec-07 03:59N 37°48' W 122°18'0 0.0
2017-Dec-07 03:29N 37°48' W 122°18'0 0.0
2017-Dec-07 02:59N 37°48' W 122°18'0 0.0
2017-Dec-07 02:29N 37°48' W 122°18'0 0.0
2017-Dec-07 01:59N 37°48' W 122°18'0 0.0
2017-Dec-07 01:29N 37°48' W 122°18'0 0.0
2017-Dec-07 00:59N 37°48' W 122°18'0 0.0
2017-Dec-07 00:29N 37°48' W 122°18'0 0.0
2017-Dec-06 23:59N 37°48' W 122°18'0 0.0
2017-Dec-06 23:29N 37°48' W 122°18'0 0.0
2017-Dec-06 22:59N 37°48' W 122°18'0 0.0
2017-Dec-06 22:29N 37°48' W 122°18'0 0.0
2017-Dec-06 21:59N 37°48' W 122°18'0 0.0
2017-Dec-06 21:29N 37°48' W 122°18'0 0.0
2017-Dec-06 20:59N 37°48' W 122°18'  

Dump ship's entire track history